sensor_id;sensor_type;location;lat;lon;timestamp;P1;durP1;ratioP1;P2;durP2;ratioP2
65150;SDS011;51918;51.856;0.150;2023-04-24T00:04:05;15.38;;;7.55;;
65150;SDS011;51918;51.856;0.150;2023-04-24T00:09:05;18.45;;;8.77;;
65150;SDS011;51918;51.856;0.150;2023-04-24T00:14:06;18.45;;;7.90;;
65150;SDS011;51918;51.856;0.150;2023-04-24T00:19:08;16.75;;;7.82;;
65150;SDS011;51918;51.856;0.150;2023-04-24T00:24:09;14.50;;;6.95;;
65150;SDS011;51918;51.856;0.150;2023-04-24T00:29:09;14.40;;;7.40;;
65150;SDS011;51918;51.856;0.150;2023-04-24T00:34:11;15.27;;;7.18;;
65150;SDS011;51918;51.856;0.150;2023-04-24T00:39:12;14.32;;;5.90;;
65150;SDS011;51918;51.856;0.150;2023-04-24T00:44:12;14.23;;;5.90;;
65150;SDS011;51918;51.856;0.150;2023-04-24T00:49:15;12.60;;;6.57;;
65150;SDS011;51918;51.856;0.150;2023-04-24T00:54:15;14.73;;;5.45;;
65150;SDS011;51918;51.856;0.150;2023-04-24T00:59:17;18.35;;;6.60;;
65150;SDS011;51918;51.856;0.150;2023-04-24T01:04:19;10.90;;;5.20;;
65150;SDS011;51918;51.856;0.150;2023-04-24T01:09:20;13.65;;;5.72;;
65150;SDS011;51918;51.856;0.150;2023-04-24T01:14:23;16.65;;;5.68;;
65150;SDS011;51918;51.856;0.150;2023-04-24T01:19:25;15.73;;;6.13;;
65150;SDS011;51918;51.856;0.150;2023-04-24T01:29:28;15.27;;;5.47;;
65150;SDS011;51918;51.856;0.150;2023-04-24T01:34:29;13.20;;;6.03;;
65150;SDS011;51918;51.856;0.150;2023-04-24T01:39:31;12.90;;;5.97;;
65150;SDS011;51918;51.856;0.150;2023-04-24T01:44:32;13.63;;;6.55;;
65150;SDS011;51918;51.856;0.150;2023-04-24T01:49:33;16.27;;;7.60;;
65150;SDS011;51918;51.856;0.150;2023-04-24T01:54:36;13.90;;;6.70;;
65150;SDS011;51918;51.856;0.150;2023-04-24T02:04:37;14.88;;;6.05;;
65150;SDS011;51918;51.856;0.150;2023-04-24T02:09:39;13.77;;;6.53;;
65150;SDS011;51918;51.856;0.150;2023-04-24T02:19:40;15.15;;;6.07;;
65150;SDS011;51918;51.856;0.150;2023-04-24T02:24:42;15.35;;;5.85;;
65150;SDS011;51918;51.856;0.150;2023-04-24T02:29:42;14.20;;;6.68;;
65150;SDS011;51918;51.856;0.150;2023-04-24T02:34:43;13.77;;;6.32;;
65150;SDS011;51918;51.856;0.150;2023-04-24T02:39:45;12.57;;;5.70;;
65150;SDS011;51918;51.856;0.150;2023-04-24T02:49:46;10.87;;;4.67;;
65150;SDS011;51918;51.856;0.150;2023-04-24T02:54:48;8.07;;;4.07;;
65150;SDS011;51918;51.856;0.150;2023-04-24T02:59:48;10.43;;;4.40;;
65150;SDS011;51918;51.856;0.150;2023-04-24T03:04:49;11.05;;;4.22;;
65150;SDS011;51918;51.856;0.150;2023-04-24T03:09:51;10.95;;;4.10;;
65150;SDS011;51918;51.856;0.150;2023-04-24T03:14:51;10.73;;;3.85;;
65150;SDS011;51918;51.856;0.150;2023-04-24T03:19:52;9.85;;;3.70;;
65150;SDS011;51918;51.856;0.150;2023-04-24T03:24:54;7.63;;;3.33;;
65150;SDS011;51918;51.856;0.150;2023-04-24T03:29:54;13.32;;;3.80;;
65150;SDS011;51918;51.856;0.150;2023-04-24T03:34:55;10.70;;;3.53;;
65150;SDS011;51918;51.856;0.150;2023-04-24T03:39:57;11.13;;;3.70;;
65150;SDS011;51918;51.856;0.150;2023-04-24T03:44:58;7.88;;;2.97;;
65150;SDS011;51918;51.856;0.150;2023-04-24T03:49:58;9.95;;;3.25;;
65150;SDS011;51918;51.856;0.150;2023-04-24T03:55:00;10.02;;;3.63;;
65150;SDS011;51918;51.856;0.150;2023-04-24T04:05:01;8.27;;;3.90;;
65150;SDS011;51918;51.856;0.150;2023-04-24T04:10:03;8.73;;;3.30;;
65150;SDS011;51918;51.856;0.150;2023-04-24T04:15:05;7.70;;;3.10;;
65150;SDS011;51918;51.856;0.150;2023-04-24T04:20:06;7.63;;;3.00;;
65150;SDS011;51918;51.856;0.150;2023-04-24T04:25:09;8.73;;;3.25;;
65150;SDS011;51918;51.856;0.150;2023-04-24T04:30:10;8.60;;;3.55;;
65150;SDS011;51918;51.856;0.150;2023-04-24T04:35:11;9.05;;;3.28;;
65150;SDS011;51918;51.856;0.150;2023-04-24T04:40:13;6.65;;;2.90;;
65150;SDS011;51918;51.856;0.150;2023-04-24T04:45:13;6.20;;;3.03;;
65150;SDS011;51918;51.856;0.150;2023-04-24T04:50:14;11.05;;;3.00;;
65150;SDS011;51918;51.856;0.150;2023-04-24T04:55:16;11.15;;;3.13;;
65150;SDS011;51918;51.856;0.150;2023-04-24T05:05:17;7.97;;;2.95;;
65150;SDS011;51918;51.856;0.150;2023-04-24T05:10:20;7.70;;;2.47;;
65150;SDS011;51918;51.856;0.150;2023-04-24T05:15:21;5.95;;;2.33;;
65150;SDS011;51918;51.856;0.150;2023-04-24T05:20:21;8.45;;;2.90;;
65150;SDS011;51918;51.856;0.150;2023-04-24T05:25:23;5.78;;;2.70;;
65150;SDS011;51918;51.856;0.150;2023-04-24T05:30:24;7.38;;;2.38;;
65150;SDS011;51918;51.856;0.150;2023-04-24T05:35:26;6.53;;;2.03;;
65150;SDS011;51918;51.856;0.150;2023-04-24T05:40:28;7.97;;;2.35;;
65150;SDS011;51918;51.856;0.150;2023-04-24T05:50:29;8.37;;;2.70;;
65150;SDS011;51918;51.856;0.150;2023-04-24T05:55:31;8.25;;;2.13;;
65150;SDS011;51918;51.856;0.150;2023-04-24T06:00:32;6.95;;;2.40;;
65150;SDS011;51918;51.856;0.150;2023-04-24T06:05:33;5.80;;;1.63;;
65150;SDS011;51918;51.856;0.150;2023-04-24T06:10:35;7.13;;;2.00;;
65150;SDS011;51918;51.856;0.150;2023-04-24T06:15:35;5.07;;;1.52;;
65150;SDS011;51918;51.856;0.150;2023-04-24T06:20:36;5.38;;;1.98;;
65150;SDS011;51918;51.856;0.150;2023-04-24T06:25:38;4.43;;;1.35;;
65150;SDS011;51918;51.856;0.150;2023-04-24T06:30:39;11.38;;;2.15;;
65150;SDS011;51918;51.856;0.150;2023-04-24T06:35:39;6.72;;;2.00;;
65150;SDS011;51918;51.856;0.150;2023-04-24T06:40:42;5.25;;;1.60;;
65150;SDS011;51918;51.856;0.150;2023-04-24T06:45:43;5.20;;;1.80;;
65150;SDS011;51918;51.856;0.150;2023-04-24T06:50:43;5.93;;;1.50;;
65150;SDS011;51918;51.856;0.150;2023-04-24T06:55:45;4.88;;;1.88;;
65150;SDS011;51918;51.856;0.150;2023-04-24T07:00:46;6.53;;;2.13;;
65150;SDS011;51918;51.856;0.150;2023-04-24T07:05:48;4.22;;;1.60;;
65150;SDS011;51918;51.856;0.150;2023-04-24T07:10:50;5.45;;;1.40;;
65150;SDS011;51918;51.856;0.150;2023-04-24T07:15:51;3.85;;;1.42;;
65150;SDS011;51918;51.856;0.150;2023-04-24T07:20:51;6.10;;;1.50;;
65150;SDS011;51918;51.856;0.150;2023-04-24T07:25:53;6.95;;;1.30;;
65150;SDS011;51918;51.856;0.150;2023-04-24T07:30:54;5.25;;;2.40;;
65150;SDS011;51918;51.856;0.150;2023-04-24T07:35:55;3.25;;;1.00;;
65150;SDS011;51918;51.856;0.150;2023-04-24T07:40:57;4.50;;;1.05;;
65150;SDS011;51918;51.856;0.150;2023-04-24T07:45:57;3.53;;;0.88;;
65150;SDS011;51918;51.856;0.150;2023-04-24T07:50:58;1.77;;;1.05;;
65150;SDS011;51918;51.856;0.150;2023-04-24T07:56:00;2.88;;;0.70;;
65150;SDS011;51918;51.856;0.150;2023-04-24T08:01:01;4.07;;;0.80;;
65150;SDS011;51918;51.856;0.150;2023-04-24T08:06:02;3.30;;;0.68;;
65150;SDS011;51918;51.856;0.150;2023-04-24T08:11:04;2.95;;;0.80;;
65150;SDS011;51918;51.856;0.150;2023-04-24T08:16:05;2.42;;;0.93;;
65150;SDS011;51918;51.856;0.150;2023-04-24T08:21:05;2.42;;;0.57;;
65150;SDS011;51918;51.856;0.150;2023-04-24T08:26:07;2.60;;;0.90;;
65150;SDS011;51918;51.856;0.150;2023-04-24T08:31:08;1.92;;;0.80;;
65150;SDS011;51918;51.856;0.150;2023-04-24T08:36:09;2.22;;;0.50;;
65150;SDS011;51918;51.856;0.150;2023-04-24T08:41:11;4.22;;;0.95;;
65150;SDS011;51918;51.856;0.150;2023-04-24T08:46:11;1.65;;;0.65;;
65150;SDS011;51918;51.856;0.150;2023-04-24T08:51:13;2.28;;;0.60;;
65150;SDS011;51918;51.856;0.150;2023-04-24T08:56:15;3.17;;;1.15;;
65150;SDS011;51918;51.856;0.150;2023-04-24T09:01:16;3.55;;;1.05;;
65150;SDS011;51918;51.856;0.150;2023-04-24T09:06:17;2.50;;;1.15;;
65150;SDS011;51918;51.856;0.150;2023-04-24T09:11:23;3.75;;;0.90;;
65150;SDS011;51918;51.856;0.150;2023-04-24T09:16:25;4.25;;;0.90;;
65150;SDS011;51918;51.856;0.150;2023-04-24T09:21:30;3.30;;;0.82;;
65150;SDS011;51918;51.856;0.150;2023-04-24T09:26:34;4.07;;;0.93;;
65150;SDS011;51918;51.856;0.150;2023-04-24T09:31:36;2.78;;;0.80;;
65150;SDS011;51918;51.856;0.150;2023-04-24T09:36:37;2.15;;;0.70;;
65150;SDS011;51918;51.856;0.150;2023-04-24T09:41:44;3.17;;;1.23;;
65150;SDS011;51918;51.856;0.150;2023-04-24T09:46:49;3.30;;;1.13;;
65150;SDS011;51918;51.856;0.150;2023-04-24T09:51:50;2.53;;;0.88;;
65150;SDS011;51918;51.856;0.150;2023-04-24T09:56:53;1.58;;;0.70;;
65150;SDS011;51918;51.856;0.150;2023-04-24T10:01:54;2.08;;;0.80;;
65150;SDS011;51918;51.856;0.150;2023-04-24T10:11:57;2.88;;;0.88;;
65150;SDS011;51918;51.856;0.150;2023-04-24T10:16:59;2.30;;;0.90;;
65150;SDS011;51918;51.856;0.150;2023-04-24T10:27:02;2.22;;;0.80;;
65150;SDS011;51918;51.856;0.150;2023-04-24T10:32:05;3.20;;;0.98;;
65150;SDS011;51918;51.856;0.150;2023-04-24T10:37:07;2.22;;;0.93;;
65150;SDS011;51918;51.856;0.150;2023-04-24T10:42:15;3.70;;;1.23;;
65150;SDS011;51918;51.856;0.150;2023-04-24T10:47:16;2.13;;;0.82;;
65150;SDS011;51918;51.856;0.150;2023-04-24T10:57:27;4.13;;;0.93;;
65150;SDS011;51918;51.856;0.150;2023-04-24T11:02:35;1.42;;;0.75;;
65150;SDS011;51918;51.856;0.150;2023-04-24T11:13:15;2.33;;;0.88;;
65150;SDS011;51918;51.856;0.150;2023-04-24T11:18:16;2.58;;;1.08;;
65150;SDS011;51918;51.856;0.150;2023-04-24T11:23:17;3.72;;;1.33;;
65150;SDS011;51918;51.856;0.150;2023-04-24T11:28:19;3.42;;;1.02;;
65150;SDS011;51918;51.856;0.150;2023-04-24T11:33:24;4.82;;;1.33;;
65150;SDS011;51918;51.856;0.150;2023-04-24T11:38:25;5.57;;;1.88;;
65150;SDS011;51918;51.856;0.150;2023-04-24T11:43:29;4.00;;;1.08;;
65150;SDS011;51918;51.856;0.150;2023-04-24T11:48:33;3.25;;;1.08;;
65150;SDS011;51918;51.856;0.150;2023-04-24T11:53:34;3.60;;;1.10;;
65150;SDS011;51918;51.856;0.150;2023-04-24T11:58:38;6.93;;;1.48;;
65150;SDS011;51918;51.856;0.150;2023-04-24T12:03:39;5.50;;;1.50;;
65150;SDS011;51918;51.856;0.150;2023-04-24T12:08:40;3.90;;;1.40;;
65150;SDS011;51918;51.856;0.150;2023-04-24T12:13:42;3.90;;;1.50;;
65150;SDS011;51918;51.856;0.150;2023-04-24T12:18:43;2.78;;;1.00;;
65150;SDS011;51918;51.856;0.150;2023-04-24T12:23:44;2.63;;;1.13;;
65150;SDS011;51918;51.856;0.150;2023-04-24T12:28:47;2.67;;;1.20;;
65150;SDS011;51918;51.856;0.150;2023-04-24T12:33:49;2.38;;;1.10;;
65150;SDS011;51918;51.856;0.150;2023-04-24T12:38:52;2.80;;;1.10;;
65150;SDS011;51918;51.856;0.150;2023-04-24T12:43:54;3.28;;;1.20;;
65150;SDS011;51918;51.856;0.150;2023-04-24T12:48:55;4.57;;;1.27;;
65150;SDS011;51918;51.856;0.150;2023-04-24T12:58:58;2.40;;;1.40;;
65150;SDS011;51918;51.856;0.150;2023-04-24T13:03:58;3.25;;;1.33;;
65150;SDS011;51918;51.856;0.150;2023-04-24T13:08:59;3.70;;;1.60;;
65150;SDS011;51918;51.856;0.150;2023-04-24T13:14:01;3.70;;;1.40;;
65150;SDS011;51918;51.856;0.150;2023-04-24T13:19:02;2.60;;;1.25;;
65150;SDS011;51918;51.856;0.150;2023-04-24T13:24:03;2.55;;;1.20;;
65150;SDS011;51918;51.856;0.150;2023-04-24T13:29:05;3.20;;;1.13;;
65150;SDS011;51918;51.856;0.150;2023-04-24T13:34:06;5.00;;;1.38;;
65150;SDS011;51918;51.856;0.150;2023-04-24T13:39:06;3.58;;;1.10;;
65150;SDS011;51918;51.856;0.150;2023-04-24T13:44:08;2.75;;;0.95;;
65150;SDS011;51918;51.856;0.150;2023-04-24T13:49:09;3.15;;;1.15;;
65150;SDS011;51918;51.856;0.150;2023-04-24T13:54:10;2.47;;;1.17;;
65150;SDS011;51918;51.856;0.150;2023-04-24T14:04:13;5.25;;;1.60;;
65150;SDS011;51918;51.856;0.150;2023-04-24T14:09:13;3.58;;;1.30;;
65150;SDS011;51918;51.856;0.150;2023-04-24T14:14:15;5.07;;;1.08;;
65150;SDS011;51918;51.856;0.150;2023-04-24T14:19:16;2.60;;;1.17;;
65150;SDS011;51918;51.856;0.150;2023-04-24T14:24:17;2.05;;;1.05;;
65150;SDS011;51918;51.856;0.150;2023-04-24T14:29:20;2.42;;;1.00;;
65150;SDS011;51918;51.856;0.150;2023-04-24T14:34:21;4.05;;;1.60;;
65150;SDS011;51918;51.856;0.150;2023-04-24T14:39:21;4.20;;;1.35;;
65150;SDS011;51918;51.856;0.150;2023-04-24T14:44:24;6.65;;;1.70;;
65150;SDS011;51918;51.856;0.150;2023-04-24T14:49:24;3.92;;;1.30;;
65150;SDS011;51918;51.856;0.150;2023-04-24T14:54:25;4.97;;;1.33;;
65150;SDS011;51918;51.856;0.150;2023-04-24T14:59:28;3.38;;;1.67;;
65150;SDS011;51918;51.856;0.150;2023-04-24T15:04:29;5.22;;;1.60;;
65150;SDS011;51918;51.856;0.150;2023-04-24T15:09:29;4.55;;;1.58;;
65150;SDS011;51918;51.856;0.150;2023-04-24T15:14:31;7.38;;;2.30;;
65150;SDS011;51918;51.856;0.150;2023-04-24T15:19:32;6.00;;;2.05;;
65150;SDS011;51918;51.856;0.150;2023-04-24T15:24:33;4.32;;;1.52;;
65150;SDS011;51918;51.856;0.150;2023-04-24T15:29:35;4.43;;;1.98;;
65150;SDS011;51918;51.856;0.150;2023-04-24T15:34:35;3.55;;;1.77;;
65150;SDS011;51918;51.856;0.150;2023-04-24T15:39:37;5.47;;;2.13;;
65150;SDS011;51918;51.856;0.150;2023-04-24T15:44:39;4.07;;;2.10;;
65150;SDS011;51918;51.856;0.150;2023-04-24T15:49:39;5.15;;;1.70;;
65150;SDS011;51918;51.856;0.150;2023-04-24T15:54:40;4.70;;;1.33;;
65150;SDS011;51918;51.856;0.150;2023-04-24T15:59:42;4.05;;;1.67;;
65150;SDS011;51918;51.856;0.150;2023-04-24T16:04:44;4.30;;;1.33;;
65150;SDS011;51918;51.856;0.150;2023-04-24T16:09:45;5.95;;;2.17;;
65150;SDS011;51918;51.856;0.150;2023-04-24T16:14:47;5.45;;;2.05;;
65150;SDS011;51918;51.856;0.150;2023-04-24T16:19:48;6.55;;;2.33;;
65150;SDS011;51918;51.856;0.150;2023-04-24T16:24:49;6.60;;;2.80;;
65150;SDS011;51918;51.856;0.150;2023-04-24T16:29:51;7.70;;;2.83;;
65150;SDS011;51918;51.856;0.150;2023-04-24T16:34:51;9.48;;;3.70;;
65150;SDS011;51918;51.856;0.150;2023-04-24T16:39:52;11.00;;;3.80;;
65150;SDS011;51918;51.856;0.150;2023-04-24T16:44:54;9.15;;;3.83;;
65150;SDS011;51918;51.856;0.150;2023-04-24T16:49:55;10.13;;;3.83;;
65150;SDS011;51918;51.856;0.150;2023-04-24T16:54:56;9.52;;;3.97;;
65150;SDS011;51918;51.856;0.150;2023-04-24T17:00:00;8.55;;;3.53;;
65150;SDS011;51918;51.856;0.150;2023-04-24T17:05:01;6.75;;;2.78;;
65150;SDS011;51918;51.856;0.150;2023-04-24T17:10:02;8.63;;;3.70;;
65150;SDS011;51918;51.856;0.150;2023-04-24T17:15:05;7.03;;;3.40;;
65150;SDS011;51918;51.856;0.150;2023-04-24T17:20:06;10.10;;;3.28;;
65150;SDS011;51918;51.856;0.150;2023-04-24T17:30:10;7.13;;;2.92;;
65150;SDS011;51918;51.856;0.150;2023-04-24T17:35:12;6.78;;;2.88;;
65150;SDS011;51918;51.856;0.150;2023-04-24T17:40:12;7.03;;;2.75;;
65150;SDS011;51918;51.856;0.150;2023-04-24T17:45:15;6.13;;;2.50;;
65150;SDS011;51918;51.856;0.150;2023-04-24T17:50:15;8.00;;;3.08;;
65150;SDS011;51918;51.856;0.150;2023-04-24T17:55:17;7.28;;;3.13;;
65150;SDS011;51918;51.856;0.150;2023-04-24T18:00:19;10.25;;;3.63;;
65150;SDS011;51918;51.856;0.150;2023-04-24T18:05:20;7.25;;;3.63;;
65150;SDS011;51918;51.856;0.150;2023-04-24T18:10:20;7.82;;;3.40;;
65150;SDS011;51918;51.856;0.150;2023-04-24T18:15:23;8.95;;;3.45;;
65150;SDS011;51918;51.856;0.150;2023-04-24T18:20:24;8.32;;;3.17;;
65150;SDS011;51918;51.856;0.150;2023-04-24T18:25:25;9.05;;;3.10;;
65150;SDS011;51918;51.856;0.150;2023-04-24T18:30:27;8.82;;;3.30;;
65150;SDS011;51918;51.856;0.150;2023-04-24T18:35:29;9.02;;;3.00;;
65150;SDS011;51918;51.856;0.150;2023-04-24T18:40:29;8.57;;;3.10;;
65150;SDS011;51918;51.856;0.150;2023-04-24T18:45:31;6.70;;;3.30;;
65150;SDS011;51918;51.856;0.150;2023-04-24T18:50:32;10.38;;;3.78;;
65150;SDS011;51918;51.856;0.150;2023-04-24T18:55:33;9.00;;;3.10;;
65150;SDS011;51918;51.856;0.150;2023-04-24T19:00:35;8.23;;;2.95;;
65150;SDS011;51918;51.856;0.150;2023-04-24T19:05:35;8.73;;;2.72;;
65150;SDS011;51918;51.856;0.150;2023-04-24T19:10:36;7.82;;;2.50;;
65150;SDS011;51918;51.856;0.150;2023-04-24T19:15:38;7.00;;;2.35;;
65150;SDS011;51918;51.856;0.150;2023-04-24T19:20:39;8.88;;;3.05;;
65150;SDS011;51918;51.856;0.150;2023-04-24T19:25:39;5.97;;;2.08;;
65150;SDS011;51918;51.856;0.150;2023-04-24T19:30:42;10.43;;;2.25;;
65150;SDS011;51918;51.856;0.150;2023-04-24T19:35:42;5.80;;;2.40;;
65150;SDS011;51918;51.856;0.150;2023-04-24T19:40:43;9.65;;;2.70;;
65150;SDS011;51918;51.856;0.150;2023-04-24T19:45:45;10.40;;;2.83;;
65150;SDS011;51918;51.856;0.150;2023-04-24T19:50:46;9.35;;;3.22;;
65150;SDS011;51918;51.856;0.150;2023-04-24T19:55:47;7.50;;;2.38;;
65150;SDS011;51918;51.856;0.150;2023-04-24T20:00:49;10.68;;;2.60;;
65150;SDS011;51918;51.856;0.150;2023-04-24T20:05:50;9.85;;;2.80;;
65150;SDS011;51918;51.856;0.150;2023-04-24T20:10:50;12.70;;;2.78;;
65150;SDS011;51918;51.856;0.150;2023-04-24T20:15:53;7.00;;;2.50;;
65150;SDS011;51918;51.856;0.150;2023-04-24T20:20:54;10.35;;;2.65;;
65150;SDS011;51918;51.856;0.150;2023-04-24T20:25:54;6.93;;;2.80;;
65150;SDS011;51918;51.856;0.150;2023-04-24T20:30:57;6.07;;;2.13;;
65150;SDS011;51918;51.856;0.150;2023-04-24T20:35:58;9.68;;;2.78;;
65150;SDS011;51918;51.856;0.150;2023-04-24T20:40:58;9.38;;;2.63;;
65150;SDS011;51918;51.856;0.150;2023-04-24T20:46:00;6.78;;;2.67;;
65150;SDS011;51918;51.856;0.150;2023-04-24T20:51:01;8.40;;;2.25;;
65150;SDS011;51918;51.856;0.150;2023-04-24T20:56:02;10.95;;;2.72;;
65150;SDS011;51918;51.856;0.150;2023-04-24T21:01:04;9.40;;;2.35;;
65150;SDS011;51918;51.856;0.150;2023-04-24T21:06:05;7.30;;;2.53;;
65150;SDS011;51918;51.856;0.150;2023-04-24T21:11:05;10.38;;;2.58;;
65150;SDS011;51918;51.856;0.150;2023-04-24T21:16:07;8.75;;;2.55;;
65150;SDS011;51918;51.856;0.150;2023-04-24T21:21:09;8.67;;;2.70;;
65150;SDS011;51918;51.856;0.150;2023-04-24T21:26:10;11.57;;;2.38;;
65150;SDS011;51918;51.856;0.150;2023-04-24T21:31:12;9.57;;;2.35;;
65150;SDS011;51918;51.856;0.150;2023-04-24T21:36:13;8.70;;;2.15;;
65150;SDS011;51918;51.856;0.150;2023-04-24T21:41:13;7.13;;;2.10;;
65150;SDS011;51918;51.856;0.150;2023-04-24T21:46:16;7.35;;;2.53;;
65150;SDS011;51918;51.856;0.150;2023-04-24T21:51:19;8.02;;;2.47;;
65150;SDS011;51918;51.856;0.150;2023-04-24T21:56:19;9.43;;;2.30;;
65150;SDS011;51918;51.856;0.150;2023-04-24T22:01:22;9.77;;;1.90;;
65150;SDS011;51918;51.856;0.150;2023-04-24T22:06:23;8.73;;;2.40;;
65150;SDS011;51918;51.856;0.150;2023-04-24T22:11:23;11.23;;;2.97;;
65150;SDS011;51918;51.856;0.150;2023-04-24T22:16:26;12.52;;;2.40;;
65150;SDS011;51918;51.856;0.150;2023-04-24T22:21:27;11.02;;;3.38;;
65150;SDS011;51918;51.856;0.150;2023-04-24T22:26:27;9.93;;;2.10;;
65150;SDS011;51918;51.856;0.150;2023-04-24T22:31:30;14.45;;;2.28;;
65150;SDS011;51918;51.856;0.150;2023-04-24T22:36:30;8.60;;;2.30;;
65150;SDS011;51918;51.856;0.150;2023-04-24T22:41:31;8.77;;;2.35;;
65150;SDS011;51918;51.856;0.150;2023-04-24T22:46:33;9.88;;;3.75;;
65150;SDS011;51918;51.856;0.150;2023-04-24T22:56:34;11.30;;;2.27;;
65150;SDS011;51918;51.856;0.150;2023-04-24T23:01:36;8.20;;;2.45;;
65150;SDS011;51918;51.856;0.150;2023-04-24T23:06:37;6.22;;;2.78;;
65150;SDS011;51918;51.856;0.150;2023-04-24T23:11:37;6.90;;;3.08;;
65150;SDS011;51918;51.856;0.150;2023-04-24T23:16:39;13.57;;;2.67;;
65150;SDS011;51918;51.856;0.150;2023-04-24T23:26:41;8.57;;;2.83;;
65150;SDS011;51918;51.856;0.150;2023-04-24T23:31:43;10.45;;;2.88;;
65150;SDS011;51918;51.856;0.150;2023-04-24T23:36:43;9.75;;;3.42;;
65150;SDS011;51918;51.856;0.150;2023-04-24T23:41:44;10.82;;;2.47;;
65150;SDS011;51918;51.856;0.150;2023-04-24T23:46:46;10.73;;;2.65;;
65150;SDS011;51918;51.856;0.150;2023-04-24T23:51:47;10.90;;;2.35;;
65150;SDS011;51918;51.856;0.150;2023-04-24T23:56:48;8.77;;;3.17;;
